createdAt,value
2023-04-22T09:48:06.000Z,0.107422
2023-04-22T09:48:26.000Z,20.745117
2023-04-22T09:48:47.000Z,20.435547
2023-04-22T09:49:07.000Z,14.331055
2023-04-22T09:49:27.000Z,13.721680
2023-04-22T09:49:47.000Z,9.958984
2023-04-22T09:50:19.000Z,12.136719
2023-04-22T09:50:39.000Z,16.215820
2023-04-22T09:50:59.000Z,13.478516
2023-04-22T09:51:19.000Z,1.122070
2023-04-22T09:51:40.000Z,0.093750
2023-04-22T09:52:00.000Z,2.977539
2023-04-22T09:52:20.000Z,16.918945
2023-04-22T09:52:40.000Z,13.792969
2023-04-22T09:53:01.000Z,15.449219
2023-04-22T09:53:21.000Z,15.536133
2023-04-22T09:53:41.000Z,5.633789
2023-04-22T09:54:01.000Z,23.678711
2023-04-22T09:54:22.000Z,15.876953
2023-04-22T09:54:42.000Z,17.911133
2023-04-22T09:55:02.000Z,19.534180
2023-04-22T09:55:22.000Z,16.727539
2023-04-22T09:55:43.000Z,18.786133
2023-04-22T09:56:03.000Z,18.594727
2023-04-22T09:56:23.000Z,15.460938
2023-04-22T09:56:44.000Z,20.790039
2023-04-22T09:57:04.000Z,22.687500
2023-04-22T09:57:24.000Z,19.839844
2023-04-22T09:57:44.000Z,17.675781
2023-04-22T09:58:05.000Z,18.543945
2023-04-22T09:58:25.000Z,14.815430
2023-04-22T09:58:45.000Z,14.331055
2023-04-22T09:59:06.000Z,14.711914
2023-04-22T09:59:26.000Z,12.546875
2023-04-22T09:59:46.000Z,19.549805
2023-04-22T10:00:06.000Z,18.585938
2023-04-22T10:00:27.000Z,14.827148
2023-04-22T10:00:47.000Z,10.778320
2023-04-22T10:01:07.000Z,23.162109
2023-04-22T10:01:28.000Z,13.868164
2023-04-22T10:01:48.000Z,22.338867
2023-04-22T10:02:08.000Z,15.804688
2023-04-22T10:02:28.000Z,14.989258
2023-04-22T10:02:49.000Z,15.394531
2023-04-22T10:03:09.000Z,14.681641
2023-04-22T10:03:29.000Z,15.555664
2023-04-22T10:03:50.000Z,21.223633
2023-04-22T10:04:10.000Z,4.817383
2023-04-22T10:04:30.000Z,0.145508
2023-04-22T10:04:50.000Z,0.117188
2023-04-22T10:05:11.000Z,0.083984
2023-04-22T10:05:13.000Z,1.729492
2023-04-22T10:06:21.000Z,11.735352
2023-04-22T10:06:41.000Z,12.716797
2023-04-22T10:07:01.000Z,15.513672
2023-04-22T10:07:22.000Z,14.465820
2023-04-22T10:07:42.000Z,19.586914
2023-04-22T10:08:02.000Z,10.935547
2023-04-22T10:08:23.000Z,18.740234
2023-04-22T10:08:43.000Z,15.605469
2023-04-22T10:09:03.000Z,15.136719
2023-04-22T10:09:23.000Z,12.333008
2023-04-22T10:09:44.000Z,8.179688
2023-04-22T10:10:04.000Z,1.171875
2023-04-22T10:10:24.000Z,1.052734
2023-04-22T10:10:44.000Z,1.619141
2023-04-22T10:10:52.000Z,2.000977
2023-04-22T10:11:35.000Z,16.159180
2023-04-22T10:11:56.000Z,15.988281
2023-04-22T10:12:16.000Z,17.667969
2023-04-22T10:12:36.000Z,18.099609
2023-04-22T10:12:56.000Z,16.225586
2023-04-22T10:13:17.000Z,16.440430
2023-04-22T10:13:37.000Z,14.828125
2023-04-22T10:13:57.000Z,13.726562
2023-04-22T10:14:17.000Z,18.179688
2023-04-22T10:14:38.000Z,18.719727
2023-04-22T10:14:58.000Z,16.125000
2023-04-22T10:15:18.000Z,12.696289
2023-04-22T10:15:39.000Z,14.710938
2023-04-22T10:15:59.000Z,16.508789
2023-04-22T10:16:19.000Z,13.205078
2023-04-22T10:16:39.000Z,15.420898
2023-04-22T10:17:00.000Z,18.043945
2023-04-22T10:17:20.000Z,16.517578
2023-04-22T10:17:40.000Z,15.712891
2023-04-22T10:18:00.000Z,13.630859
2023-04-22T10:18:21.000Z,14.170898
2023-04-22T10:18:41.000Z,7.334961
2023-04-22T10:19:01.000Z,9.442383
2023-04-22T11:23:55.000Z,0.113281
2023-04-22T11:24:15.000Z,7.974609
2023-04-22T11:24:36.000Z,8.878906
2023-04-22T11:24:56.000Z,10.308594
2023-04-22T11:25:16.000Z,9.646484
2023-04-22T11:25:36.000Z,11.915039
2023-04-22T11:25:57.000Z,9.306641
2023-04-22T11:26:17.000Z,8.038086
2023-04-22T11:26:37.000Z,7.029297
2023-04-22T11:26:57.000Z,10.152344
2023-04-22T11:27:18.000Z,10.732422
2023-04-22T11:27:38.000Z,12.425781
2023-04-22T11:27:58.000Z,11.193359
2023-04-22T11:28:18.000Z,12.376953
2023-04-22T11:28:43.000Z,9.871094
2023-04-22T11:29:03.000Z,14.238281
2023-04-22T11:29:24.000Z,13.575195
2023-04-22T11:29:44.000Z,14.552734
2023-04-22T11:30:04.000Z,5.653320
2023-04-22T11:30:25.000Z,15.131836
2023-04-22T11:30:45.000Z,14.803711
2023-04-22T11:31:05.000Z,14.890625
2023-04-22T11:31:26.000Z,12.223633
2023-04-22T11:31:46.000Z,18.219727
2023-04-22T11:32:06.000Z,17.744141
2023-04-22T11:32:26.000Z,16.638672
2023-04-22T11:32:47.000Z,14.463867
2023-04-22T11:33:07.000Z,23.144531
2023-04-22T11:33:27.000Z,18.231445
2023-04-22T11:33:48.000Z,7.289062
2023-04-22T11:34:08.000Z,15.247070
2023-04-22T11:34:28.000Z,16.826172
2023-04-22T11:34:50.000Z,7.458008
2023-04-22T11:35:11.000Z,9.285156
2023-04-22T11:35:31.000Z,13.986328
2023-04-22T11:36:03.000Z,12.255859
2023-04-22T11:36:23.000Z,2.164062
2023-04-22T11:36:43.000Z,11.732422
2023-04-22T11:37:03.000Z,16.901367
2023-04-22T11:37:24.000Z,12.896484
2023-04-22T11:37:44.000Z,18.253906
2023-04-22T11:38:04.000Z,16.572266
2023-04-22T11:38:25.000Z,15.930664
2023-04-22T11:38:45.000Z,14.299805
2023-04-22T11:39:16.000Z,11.940430
2023-04-22T11:39:36.000Z,4.275391
2023-04-22T11:39:57.000Z,14.193359
2023-04-22T11:40:17.000Z,20.337891
2023-04-22T11:40:37.000Z,16.910156
2023-04-22T11:40:57.000Z,9.075195
2023-04-22T11:41:18.000Z,13.164062
2023-04-22T11:41:38.000Z,19.679688
2023-04-22T11:41:58.000Z,17.144531
2023-04-22T11:42:19.000Z,14.906250
2023-04-22T11:42:39.000Z,9.053711
2023-04-22T11:42:59.000Z,5.979492
2023-04-22T11:43:19.000Z,2.735352
2023-04-22T11:43:40.000Z,11.728516
2023-04-22T11:44:00.000Z,13.378906
2023-04-22T11:44:20.000Z,5.577148
2023-04-22T11:44:41.000Z,13.916016
2023-04-22T11:45:01.000Z,15.412109
2023-04-22T11:45:21.000Z,14.629883
2023-04-22T11:45:41.000Z,16.688477
2023-04-22T11:46:02.000Z,2.879883
2023-04-22T11:46:22.000Z,1.067383
2023-04-22T11:46:42.000Z,3.020508
2023-04-22T11:47:02.000Z,14.561523
2023-04-22T11:47:23.000Z,17.293945
2023-04-22T11:47:43.000Z,9.329102
2023-04-22T11:48:03.000Z,13.105469
2023-04-22T11:48:24.000Z,7.059570
2023-04-22T11:48:44.000Z,10.200195
2023-04-22T11:49:04.000Z,11.002930
2023-04-22T11:49:25.000Z,6.766602
2023-04-22T11:49:45.000Z,0.997070
2023-04-22T11:50:05.000Z,3.057617
2023-04-22T11:50:25.000Z,12.236328
2023-04-22T11:50:46.000Z,18.542969
2023-04-22T11:51:06.000Z,15.733398
2023-04-22T11:51:26.000Z,12.809570
2023-04-22T11:51:47.000Z,13.779297
2023-04-22T11:52:07.000Z,10.951172
2023-04-22T11:52:27.000Z,12.826172
2023-04-22T11:52:47.000Z,10.898438
2023-04-22T11:53:08.000Z,9.879883
2023-04-22T11:53:28.000Z,13.103516
2023-04-22T11:53:48.000Z,16.697266
2023-04-22T11:54:08.000Z,11.340820
2023-04-22T11:54:29.000Z,12.531250
2023-04-22T11:54:49.000Z,13.298828
2023-04-22T11:55:09.000Z,12.406250
2023-04-22T11:55:30.000Z,13.698242
2023-04-22T11:55:50.000Z,13.767578
2023-04-22T11:56:10.000Z,12.303711
2023-04-22T11:56:30.000Z,13.776367
2023-04-22T11:56:51.000Z,20.475586
2023-04-22T11:57:11.000Z,13.672852
2023-04-22T11:57:31.000Z,10.969727
2023-04-22T11:57:52.000Z,9.583008
2023-04-22T11:58:12.000Z,15.991211
2023-04-22T11:58:32.000Z,14.416016
2023-04-22T11:58:52.000Z,14.378906
2023-04-22T11:59:13.000Z,11.235352
2023-04-22T11:59:33.000Z,12.548828
2023-04-22T11:59:54.000Z,5.262695
2023-04-22T12:00:14.000Z,1.361328
2023-04-22T12:00:34.000Z,0.711914
2023-04-22T12:00:54.000Z,0.666992
2023-04-22T12:01:15.000Z,3.013672
2023-04-22T12:01:35.000Z,16.793945
2023-04-22T12:01:55.000Z,12.137695
2023-04-22T12:02:15.000Z,14.463867
2023-04-22T12:02:36.000Z,11.347656
2023-04-22T12:02:56.000Z,10.119141
2023-04-22T12:03:16.000Z,12.124023
2023-04-22T12:03:37.000Z,15.506836
2023-04-22T12:03:57.000Z,12.746094
2023-04-22T12:04:17.000Z,12.267578
2023-04-22T12:04:38.000Z,14.067383
2023-04-22T12:04:58.000Z,10.688477
2023-04-22T12:05:18.000Z,17.113281
2023-04-22T12:05:38.000Z,14.693359
2023-04-22T12:05:59.000Z,15.753906
2023-04-22T12:06:19.000Z,12.680664
2023-04-22T12:06:39.000Z,14.247070
2023-04-22T12:07:00.000Z,20.318359
2023-04-22T12:07:20.000Z,23.903320
2023-04-22T12:07:40.000Z,23.002930
2023-04-22T12:08:01.000Z,25.512695
2023-04-22T12:08:21.000Z,23.275391
2023-04-22T12:08:41.000Z,21.071289
2023-04-22T12:09:02.000Z,22.319336
2023-04-22T12:09:22.000Z,14.097656
2023-04-22T12:09:42.000Z,0.366211
2023-04-22T12:10:02.000Z,1.681641
2023-04-22T12:10:23.000Z,15.473633
2023-04-22T12:10:43.000Z,2.581055
2023-04-22T12:11:03.000Z,1.386719
2023-04-22T12:11:24.000Z,6.105469
2023-04-22T12:11:44.000Z,15.031250
2023-04-22T12:12:04.000Z,23.765625
2023-04-22T12:12:24.000Z,21.962891
2023-04-22T12:12:45.000Z,9.021484
2023-04-22T12:13:05.000Z,20.879883
2023-04-22T12:13:25.000Z,21.011719
2023-04-22T12:13:46.000Z,24.027344
2023-04-22T12:14:06.000Z,19.645508
2023-04-22T12:14:26.000Z,19.841797
2023-04-22T12:14:47.000Z,23.676758
2023-04-22T12:15:07.000Z,23.145508
2023-04-22T12:15:27.000Z,22.620117
2023-04-22T12:15:47.000Z,23.708984
2023-04-22T12:16:08.000Z,5.117188
2023-04-22T12:16:28.000Z,2.115234
2023-04-22T12:16:48.000Z,18.061523
2023-04-22T12:17:08.000Z,24.145508
2023-04-22T12:17:29.000Z,23.097656
2023-04-22T12:17:49.000Z,24.257812
2023-04-22T12:18:09.000Z,23.596680
2023-04-22T12:18:30.000Z,22.029297
2023-04-22T12:18:50.000Z,22.142578
2023-04-22T12:19:10.000Z,22.356445
2023-04-22T12:19:30.000Z,24.392578
2023-04-22T12:19:51.000Z,14.389648
2023-04-22T12:20:11.000Z,11.372070
2023-04-22T12:20:31.000Z,15.305664
2023-04-22T12:20:52.000Z,23.124023
2023-04-22T12:21:12.000Z,20.307617
2023-04-22T12:21:32.000Z,21.807617
2023-04-22T12:21:53.000Z,21.294922
2023-04-22T12:22:13.000Z,23.016602
2023-04-22T12:22:33.000Z,17.957031
2023-04-22T12:22:53.000Z,20.083984
2023-04-22T12:23:14.000Z,20.466797
2023-04-22T12:23:34.000Z,22.462891
2023-04-22T12:23:54.000Z,20.712891
2023-04-22T12:24:15.000Z,18.337891
2023-04-22T12:24:35.000Z,19.976562
2023-04-22T12:24:55.000Z,20.482422
2023-04-22T12:25:15.000Z,23.666016
2023-04-22T12:25:36.000Z,22.319336
2023-04-22T12:25:56.000Z,18.113281
2023-04-22T12:26:16.000Z,8.155273
2023-04-22T12:26:36.000Z,0.257812
2023-04-22T12:26:57.000Z,0.531250
2023-04-22T12:27:17.000Z,2.002930
2023-04-22T12:27:17.000Z,0.282227
2023-04-22T12:30:52.000Z,10.094727
2023-04-22T12:31:12.000Z,16.498047
2023-04-22T12:31:32.000Z,19.877930
2023-04-22T12:31:53.000Z,17.482422
2023-04-22T12:32:13.000Z,22.817383
2023-04-22T12:32:33.000Z,25.137695
2023-04-22T12:32:53.000Z,28.255859
2023-04-22T12:33:14.000Z,14.714844
2023-04-22T12:33:34.000Z,25.505859
2023-04-22T12:33:54.000Z,22.710938
2023-04-22T12:34:15.000Z,18.866211
2023-04-22T12:34:35.000Z,19.355469
2023-04-22T12:34:55.000Z,19.485352
2023-04-22T12:35:15.000Z,18.586914
2023-04-22T12:35:36.000Z,14.007812
2023-04-22T12:35:56.000Z,11.234375
2023-04-22T12:36:16.000Z,18.787109
2023-04-22T12:36:37.000Z,19.131836
2023-04-22T12:36:57.000Z,10.496094
2023-04-22T12:37:17.000Z,12.139648
2023-04-22T12:37:38.000Z,18.690430
2023-04-22T12:37:58.000Z,23.175781
2023-04-22T12:38:18.000Z,19.914062
2023-04-22T12:38:38.000Z,22.796875
2023-04-22T12:38:59.000Z,20.738281
2023-04-22T12:39:19.000Z,16.000000
2023-04-22T12:39:39.000Z,18.572266
2023-04-22T12:40:00.000Z,19.497070
2023-04-22T12:40:20.000Z,21.673828
2023-04-22T12:40:40.000Z,16.292969
2023-04-22T12:41:01.000Z,16.184570
2023-04-22T12:41:21.000Z,16.571289
2023-04-22T12:41:41.000Z,10.467773
2023-04-22T12:42:02.000Z,11.844727
2023-04-22T12:42:22.000Z,11.625000
2023-04-22T12:42:42.000Z,11.078125
2023-04-22T12:43:03.000Z,8.772461
2023-04-22T12:43:23.000Z,14.571289
2023-04-22T12:43:43.000Z,12.041992
2023-04-22T12:44:03.000Z,18.801758
2023-04-22T12:44:24.000Z,16.707031
2023-04-22T12:44:44.000Z,25.816406
2023-04-22T12:45:04.000Z,23.101562
2023-04-22T12:45:25.000Z,14.567383
2023-04-22T12:45:45.000Z,18.867188
2023-04-22T12:46:05.000Z,19.282227
2023-04-22T12:46:26.000Z,23.396484
2023-04-22T12:46:46.000Z,21.597656
2023-04-22T12:47:06.000Z,25.148438
2023-04-22T12:47:26.000Z,24.594727
2023-04-22T12:47:47.000Z,13.228516
2023-04-22T12:48:07.000Z,7.547852
2023-04-22T12:48:27.000Z,0.623047
2023-04-22T12:48:48.000Z,3.178711
2023-04-22T12:49:08.000Z,0.568359
2023-04-22T12:49:28.000Z,6.684570
2023-04-22T12:49:48.000Z,12.631836
2023-04-22T12:50:09.000Z,12.424805
2023-04-22T12:50:29.000Z,14.249023
2023-04-22T12:50:49.000Z,12.853516
2023-04-22T12:51:10.000Z,14.030273
2023-04-22T12:51:30.000Z,14.797852
2023-04-22T12:51:50.000Z,15.531250
2023-04-22T12:52:11.000Z,12.971680
2023-04-22T12:52:31.000Z,13.198242
2023-04-22T12:52:51.000Z,9.562500
2023-04-22T12:53:12.000Z,1.903320
2023-04-22T12:53:32.000Z,18.879883
2023-04-22T12:53:52.000Z,19.086914
2023-04-22T12:54:13.000Z,12.583008
2023-04-22T12:54:33.000Z,10.005859
2023-04-22T12:54:53.000Z,10.878906
2023-04-22T12:55:13.000Z,20.907227
2023-04-22T12:55:34.000Z,20.746094
2023-04-22T12:55:54.000Z,19.844727
2023-04-22T12:56:14.000Z,20.879883
2023-04-22T12:56:35.000Z,20.528320
2023-04-22T12:56:55.000Z,24.544922
2023-04-22T12:57:15.000Z,21.548828
2023-04-22T12:57:36.000Z,19.329102
2023-04-22T12:57:56.000Z,17.080078
2023-04-22T12:58:16.000Z,19.318359
2023-04-22T12:58:36.000Z,19.648438
2023-04-22T12:58:57.000Z,22.031250
2023-04-22T12:59:17.000Z,19.137695
2023-04-22T12:59:37.000Z,22.819336
2023-04-22T12:59:58.000Z,21.648438
2023-04-22T13:00:18.000Z,21.737305
2023-04-22T13:00:38.000Z,20.248047
2023-04-22T13:00:58.000Z,17.779297
2023-04-22T13:01:19.000Z,17.286133
2023-04-22T13:01:39.000Z,8.342773
2023-04-22T13:01:59.000Z,3.221680
2023-04-22T13:02:20.000Z,9.735352
2023-04-22T13:02:40.000Z,18.322266
2023-04-22T13:03:00.000Z,16.383789
2023-04-22T13:03:21.000Z,17.065430
2023-04-22T13:03:41.000Z,12.441406
2023-04-22T13:04:01.000Z,17.108398
2023-04-22T13:04:21.000Z,15.861328
2023-04-22T13:04:42.000Z,19.858398
2023-04-22T13:05:02.000Z,11.597656
2023-04-22T13:05:22.000Z,11.066406
2023-04-22T13:05:42.000Z,10.449219
2023-04-22T13:06:03.000Z,10.711914
2023-04-22T13:06:23.000Z,0.505859
2023-04-22T13:06:43.000Z,0.396484
2023-04-22T13:07:04.000Z,1.511719
2023-04-22T13:07:24.000Z,6.488281
2023-04-22T13:07:44.000Z,17.145508
2023-04-22T13:08:05.000Z,19.542969
2023-04-22T13:08:25.000Z,20.007812
2023-04-22T13:08:45.000Z,17.362305
2023-04-22T13:09:05.000Z,16.718750
2023-04-22T13:09:26.000Z,15.492188
2023-04-22T13:09:46.000Z,21.399414
2023-04-22T13:10:06.000Z,17.832031
2023-04-22T13:10:27.000Z,17.083984
2023-04-22T13:10:47.000Z,15.583984
2023-04-22T13:11:07.000Z,12.513672
2023-04-22T13:11:27.000Z,16.789062
2023-04-22T13:11:48.000Z,12.979492
2023-04-22T13:12:08.000Z,14.167969
2023-04-22T13:12:28.000Z,14.182617
2023-04-22T13:12:49.000Z,13.678711
2023-04-22T13:13:09.000Z,12.756836
2023-04-22T13:13:29.000Z,16.250000
2023-04-22T13:13:50.000Z,17.594727
2023-04-22T13:14:10.000Z,16.532227
2023-04-22T13:14:30.000Z,17.569336
2023-04-22T13:14:51.000Z,16.078125
2023-04-22T13:15:11.000Z,12.783203
2023-04-22T13:15:31.000Z,21.108398
2023-04-22T13:15:51.000Z,12.385742
2023-04-22T13:16:12.000Z,9.680664
2023-04-22T13:16:32.000Z,5.028320
2023-04-22T13:16:52.000Z,1.924805
2023-04-22T13:17:13.000Z,6.500000
2023-04-22T13:17:33.000Z,0.662109
2023-04-22T13:17:53.000Z,1.888672
2023-04-22T13:18:14.000Z,2.139648
2023-04-22T13:18:14.000Z,0.557617
2023-04-22T13:20:45.000Z,3.638672
2023-04-22T13:21:05.000Z,1.510742
2023-04-22T13:21:26.000Z,2.496094
2023-04-22T13:21:46.000Z,1.870117
2023-04-22T13:22:06.000Z,0.972656
2023-04-22T13:22:27.000Z,2.534180
2023-04-22T13:22:47.000Z,1.000000
2023-04-22T13:23:07.000Z,1.116211
2023-04-22T13:23:27.000Z,2.076172
2023-04-22T13:23:48.000Z,2.160156
2023-04-22T13:24:08.000Z,5.204102
2023-04-22T13:24:28.000Z,1.232422
2023-04-22T13:24:49.000Z,0.106445
2023-04-22T13:25:09.000Z,0.116211
2023-04-22T13:25:17.000Z,2.102539
2023-04-22T13:30:23.000Z,3.732422
2023-04-22T13:30:43.000Z,3.654297
2023-04-22T13:31:03.000Z,2.970703
2023-04-22T13:31:24.000Z,0.247070
2023-04-22T13:31:44.000Z,0.117188
2023-04-22T13:32:04.000Z,0.132812
2023-04-22T13:32:13.000Z,1.386719
2023-04-22T13:37:21.000Z,0.143555
2023-04-22T13:37:41.000Z,0.154297
2023-04-22T13:38:01.000Z,0.153320
2023-04-22T13:38:11.000Z,1.303711
2023-04-22T13:41:30.000Z,0.179688
2023-04-22T13:41:51.000Z,0.162109
2023-04-22T13:42:11.000Z,0.159180
2023-04-22T13:42:20.000Z,1.206055
2023-04-22T13:45:33.000Z,1.561523
2023-04-22T13:48:42.000Z,0.135742
2023-04-22T13:49:02.000Z,0.120117
2023-04-22T13:49:22.000Z,0.120117
2023-04-22T13:49:33.000Z,2.170898
2023-04-22T13:51:34.000Z,2.400391
2023-04-22T13:51:55.000Z,15.775391
2023-04-22T13:52:15.000Z,10.374023
2023-04-22T13:52:35.000Z,1.136719
2023-04-22T13:52:55.000Z,0.818359
2023-04-22T13:53:16.000Z,0.634766
2023-04-22T13:53:24.000Z,2.022461
2023-04-22T13:53:58.000Z,2.033203
2023-04-22T13:54:18.000Z,1.231445
2023-04-22T13:54:38.000Z,2.414062
2023-04-22T13:54:59.000Z,1.277344
2023-04-22T13:55:19.000Z,1.828125
2023-04-22T13:55:39.000Z,1.564453
2023-04-22T13:55:48.000Z,2.033203
2023-04-22T13:56:57.000Z,1.958008
2023-04-22T13:57:17.000Z,2.003906
2023-04-22T13:57:37.000Z,1.649414
2023-04-22T13:57:58.000Z,2.777344
2023-04-22T13:58:18.000Z,2.471680
2023-04-22T13:58:38.000Z,0.892578
2023-04-22T13:58:58.000Z,0.642578
2023-04-22T13:59:19.000Z,1.285156
2023-04-22T13:59:27.000Z,1.629883
2023-04-22T14:00:10.000Z,2.403320
2023-04-22T14:00:31.000Z,2.820312
2023-04-22T14:00:51.000Z,1.936523
2023-04-22T14:01:11.000Z,1.496094
2023-04-22T14:01:31.000Z,2.928711
2023-04-22T14:01:52.000Z,1.481445
2023-04-22T14:02:12.000Z,1.448242
2023-04-22T14:02:32.000Z,1.069336
2023-04-22T14:02:41.000Z,1.940430
2023-04-22T14:03:24.000Z,2.222656
2023-04-22T14:03:44.000Z,1.083984
2023-04-22T14:04:16.000Z,0.844727
2023-04-22T14:04:36.000Z,2.031250
2023-04-22T14:05:24.000Z,2.258789
2023-04-22T14:05:44.000Z,1.670898
2023-04-22T14:06:04.000Z,1.658203
2023-04-22T14:06:24.000Z,2.717773
2023-04-22T14:06:45.000Z,0.256836
2023-04-22T14:07:05.000Z,10.880859
2023-04-22T14:07:25.000Z,7.923828
2023-04-22T14:07:46.000Z,8.010742
2023-04-22T14:14:58.000Z,1.144531
2023-04-22T14:15:18.000Z,16.472656
2023-04-22T14:15:38.000Z,12.212891
2023-04-22T14:15:58.000Z,14.183594
2023-04-22T14:16:19.000Z,14.289062
2023-04-22T14:16:39.000Z,11.233398
2023-04-22T14:16:59.000Z,8.434570
2023-04-22T14:17:20.000Z,8.209961
2023-04-22T14:17:40.000Z,8.909180
2023-04-22T14:18:00.000Z,10.484375
2023-04-22T14:53:01.000Z,0.056641
2023-04-22T14:53:21.000Z,0.384766
2023-04-22T14:53:42.000Z,15.600586
2023-04-22T14:54:04.000Z,3.100586
2023-04-22T14:54:24.000Z,16.498047
2023-04-22T16:42:13.000Z,0.004883
2023-04-22T16:42:33.000Z,0.123047
